Edzard Schulte — 2CVX9 — position and weather

sailwx.info

Track history (hours):
 
Tides and Currents Weather Stations Pressure Air Temp Water Temp Dewpoint Dewpoint Depression Visibility Wind Speed Wind Dir Waves Ship Positions

Edzard Schulte

Last reported at 2016-Feb-13 18:33 UTC. Time now 2016-Feb-13 19:28 UTC.
Position N 41°47' W 010°06'.

Length 145 m; draft 6.4 m.

Type: Tanker. MMSI: 235076245.

Date/timePositionNaut miles runAvg speedWind from/ knotsBaromVisibWave heightAir tempDewpointWater temp
2016-Feb-13 18:33N 41°47' W 010°06'1211.6
2016-Feb-13 17:33N 41°56' W 010°16'  
2016-Feb-10 12:33N 50°55' E 001°12'10 9.7
2016-Feb-10 11:33N 51°02' E 001°22'1211.6
2016-Feb-10 10:33N 51°09' E 001°37'1414.1
2016-Feb-10 09:33N 51°20' E 001°51'1414.4
2016-Feb-10 08:33N 51°31' E 002°05'1313.2
2016-Feb-10 07:33N 51°41' E 002°20'5210.3
2016-Feb-10 02:32N 52°04' E 003°35'1010.0
2016-Feb-10 01:33N 52°03' E 003°51'7 6.6
2016-Feb-10 00:33N 52°00' E 004°00'1110.9
2016-Feb-09 23:33N 51°55' E 004°15'3 3.3
2016-Feb-09 22:31N 51°53' E 004°21'0 0.0
2016-Feb-09 21:31N 51°53' E 004°21'0 0.0
2016-Feb-09 20:31N 51°53' E 004°21'0 0.0
2016-Feb-09 19:19N 51°53' E 004°21'0 0.0
2016-Feb-09 18:19N 51°53' E 004°21'0 0.0
2016-Feb-09 17:31N 51°53' E 004°21'0 0.0
2016-Feb-09 16:28N 51°53' E 004°21'0 0.0
2016-Feb-09 15:25N 51°53' E 004°21'0 0.0
2016-Feb-09 14:31N 51°53' E 004°21'0 0.0
2016-Feb-09 13:13N 51°53' E 004°21'0 0.0
2016-Feb-09 12:25N 51°53' E 004°21'0 0.0
2016-Feb-09 10:13N 51°53' E 004°21'0 0.0
2016-Feb-09 09:31N 51°53' E 004°21'0 0.0
2016-Feb-09 08:31N 51°53' E 004°21'0 0.0
2016-Feb-09 07:31N 51°53' E 004°21'0 0.0
2016-Feb-09 06:31N 51°53' E 004°21'0 0.0
2016-Feb-09 05:19N 51°53' E 004°21'0 0.0
2016-Feb-09 04:22N 51°53' E 004°21'0 0.0
2016-Feb-09 03:31N 51°53' E 004°21'0 0.0
2016-Feb-09 02:28N 51°53' E 004°21'0 0.0
2016-Feb-09 01:28N 51°53' E 004°21'0 0.0
2016-Feb-09 00:31N 51°53' E 004°21'0 0.0
2016-Feb-08 23:31N 51°53' E 004°21'0 0.0
2016-Feb-08 22:25N 51°53' E 004°21'0 0.0
2016-Feb-08 21:31N 51°53' E 004°21'0 0.0
2016-Feb-08 20:25N 51°53' E 004°21'0 0.0
2016-Feb-08 19:31N 51°53' E 004°21'0 0.0
2016-Feb-08 18:31N 51°53' E 004°21'0 0.0
2016-Feb-08 17:16N 51°53' E 004°21'0 0.0
2016-Feb-08 16:31N 51°53' E 004°21'0 0.0
2016-Feb-08 15:25N 51°53' E 004°21'0 0.0
2016-Feb-08 14:22N 51°53' E 004°21'0 0.0
2016-Feb-08 13:04N 51°53' E 004°21'0 0.0
2016-Feb-08 10:25N 51°53' E 004°21'0 0.0
2016-Feb-08 09:16N 51°53' E 004°21'0 0.0
2016-Feb-08 08:31N 51°53' E 004°21'0 0.0
2016-Feb-08 07:19N 51°53' E 004°21'0 0.4
2016-Feb-08 06:33N 51°54' E 004°21'6 5.7
2016-Feb-08 05:33N 51°56' E 004°12'7 6.8
2016-Feb-08 04:33N 51°59' E 004°03'9 8.8
2016-Feb-08 03:33N 52°00' E 003°48'52 2.8
2016-Feb-07 09:06N 51°41' E 002°31'912.4
2016-Feb-07 08:23N 51°34' E 002°22'1011.9
2016-Feb-07 07:33N 51°27' E 002°11'1111.2
2016-Feb-07 06:34N 51°16' E 002°06'9 8.7
2016-Feb-07 05:33N 51°11' E 001°55'1010.2
2016-Feb-07 04:33N 51°04' E 001°42'1111.3
2016-Feb-07 03:33N 50°56' E 001°30'  
2016-Feb-04 16:31N 41°54' W 009°57'1312.8
2016-Feb-04 15:31N 41°41' W 009°57'1312.5
2016-Feb-04 14:28N 41°28' W 009°57'1111.9
2016-Feb-04 13:31N 41°16' W 009°57'2512.4
2016-Feb-04 11:31N 40°52' W 009°57'1312.3
2016-Feb-04 10:28N 40°39' W 009°57'1111.7
2016-Feb-04 09:31N 40°28' W 009°57'1212.2
2016-Feb-04 08:31N 40°15' W 009°57'1211.8
2016-Feb-04 07:28N 40°03' W 009°57'1212.0
2016-Feb-04 06:28N 39°51' W 009°57'1111.1
2016-Feb-04 05:31N 39°41' W 009°57'1010.5
2016-Feb-04 04:32N 39°30' W 009°57'1412.2
2016-Feb-04 03:25N 39°16' W 009°57'9 9.9
2016-Feb-04 02:33N 39°08' W 009°57'1110.9
2016-Feb-04 01:33N 38°57' W 009°57'1110.6
2016-Feb-04 00:33N 38°46' W 009°57'1010.4
2016-Feb-03 23:34N 38°36' W 009°55'1110.4
2016-Feb-03 22:32N 38°26' W 009°52'1110.7
2016-Feb-03 21:33N 38°16' W 009°49'1510.8
2016-Feb-03 20:12N 38°01' W 009°45'912.2
2016-Feb-03 19:28N 37°53' W 009°42'  
Track history (hours):
 
Tides and Currents Weather Stations Pressure Air Temp Water Temp Dewpoint Dewpoint Depression Visibility Wind Speed Wind Dir Waves Ship Positions

Edzard Schulte

Last reported at 2016-Feb-13 18:33 UTC. Time now 2016-Feb-13 19:28 UTC.
Position N 41°47' W 010°06'.

Length 145 m; draft 6.4 m.

Type: Tanker. MMSI: 235076245.

Date/timePositionNaut miles runAvg speedWind from/ knotsBaromVisibWave heightAir tempDewpointWater temp
2016-Feb-13 18:33N 41°47' W 010°06'1211.6
2016-Feb-13 17:33N 41°56' W 010°16'  
2016-Feb-10 12:33N 50°55' E 001°12'10 9.7
2016-Feb-10 11:33N 51°02' E 001°22'1211.6
2016-Feb-10 10:33N 51°09' E 001°37'1414.1
2016-Feb-10 09:33N 51°20' E 001°51'1414.4
2016-Feb-10 08:33N 51°31' E 002°05'1313.2
2016-Feb-10 07:33N 51°41' E 002°20'5210.3
2016-Feb-10 02:32N 52°04' E 003°35'1010.0
2016-Feb-10 01:33N 52°03' E 003°51'7 6.6
2016-Feb-10 00:33N 52°00' E 004°00'1110.9
2016-Feb-09 23:33N 51°55' E 004°15'3 3.3
2016-Feb-09 22:31N 51°53' E 004°21'0 0.0
2016-Feb-09 21:31N 51°53' E 004°21'0 0.0
2016-Feb-09 20:31N 51°53' E 004°21'0 0.0
2016-Feb-09 19:19N 51°53' E 004°21'0 0.0
2016-Feb-09 18:19N 51°53' E 004°21'0 0.0
2016-Feb-09 17:31N 51°53' E 004°21'0 0.0
2016-Feb-09 16:28N 51°53' E 004°21'0 0.0
2016-Feb-09 15:25N 51°53' E 004°21'0 0.0
2016-Feb-09 14:31N 51°53' E 004°21'0 0.0
2016-Feb-09 13:13N 51°53' E 004°21'0 0.0
2016-Feb-09 12:25N 51°53' E 004°21'0 0.0
2016-Feb-09 10:13N 51°53' E 004°21'0 0.0
2016-Feb-09 09:31N 51°53' E 004°21'0 0.0
2016-Feb-09 08:31N 51°53' E 004°21'0 0.0
2016-Feb-09 07:31N 51°53' E 004°21'0 0.0
2016-Feb-09 06:31N 51°53' E 004°21'0 0.0
2016-Feb-09 05:19N 51°53' E 004°21'0 0.0
2016-Feb-09 04:22N 51°53' E 004°21'0 0.0
2016-Feb-09 03:31N 51°53' E 004°21'0 0.0
2016-Feb-09 02:28N 51°53' E 004°21'0 0.0
2016-Feb-09 01:28N 51°53' E 004°21'0 0.0
2016-Feb-09 00:31N 51°53' E 004°21'0 0.0
2016-Feb-08 23:31N 51°53' E 004°21'0 0.0
2016-Feb-08 22:25N 51°53' E 004°21'0 0.0
2016-Feb-08 21:31N 51°53' E 004°21'0 0.0
2016-Feb-08 20:25N 51°53' E 004°21'0 0.0
2016-Feb-08 19:31N 51°53' E 004°21'0 0.0
2016-Feb-08 18:31N 51°53' E 004°21'0 0.0
2016-Feb-08 17:16N 51°53' E 004°21'0 0.0
2016-Feb-08 16:31N 51°53' E 004°21'0 0.0
2016-Feb-08 15:25N 51°53' E 004°21'0 0.0
2016-Feb-08 14:22N 51°53' E 004°21'0 0.0
2016-Feb-08 13:04N 51°53' E 004°21'0 0.0
2016-Feb-08 10:25N 51°53' E 004°21'0 0.0
2016-Feb-08 09:16N 51°53' E 004°21'0 0.0
2016-Feb-08 08:31N 51°53' E 004°21'0 0.0
2016-Feb-08 07:19N 51°53' E 004°21'0 0.4
2016-Feb-08 06:33N 51°54' E 004°21'6 5.7
2016-Feb-08 05:33N 51°56' E 004°12'7 6.8
2016-Feb-08 04:33N 51°59' E 004°03'9 8.8
2016-Feb-08 03:33N 52°00' E 003°48'52 2.8
2016-Feb-07 09:06N 51°41' E 002°31'912.4
2016-Feb-07 08:23N 51°34' E 002°22'1011.9
2016-Feb-07 07:33N 51°27' E 002°11'1111.2
2016-Feb-07 06:34N 51°16' E 002°06'9 8.7
2016-Feb-07 05:33N 51°11' E 001°55'1010.2
2016-Feb-07 04:33N 51°04' E 001°42'1111.3
2016-Feb-07 03:33N 50°56' E 001°30'  
2016-Feb-04 16:31N 41°54' W 009°57'1312.8
2016-Feb-04 15:31N 41°41' W 009°57'1312.5
2016-Feb-04 14:28N 41°28' W 009°57'1111.9
2016-Feb-04 13:31N 41°16' W 009°57'2512.4
2016-Feb-04 11:31N 40°52' W 009°57'1312.3
2016-Feb-04 10:28N 40°39' W 009°57'1111.7
2016-Feb-04 09:31N 40°28' W 009°57'1212.2
2016-Feb-04 08:31N 40°15' W 009°57'1211.8
2016-Feb-04 07:28N 40°03' W 009°57'1212.0
2016-Feb-04 06:28N 39°51' W 009°57'1111.1
2016-Feb-04 05:31N 39°41' W 009°57'1010.5
2016-Feb-04 04:32N 39°30' W 009°57'1412.2
2016-Feb-04 03:25N 39°16' W 009°57'9 9.9
2016-Feb-04 02:33N 39°08' W 009°57'1110.9
2016-Feb-04 01:33N 38°57' W 009°57'1110.6
2016-Feb-04 00:33N 38°46' W 009°57'1010.4
2016-Feb-03 23:34N 38°36' W 009°55'1110.4
2016-Feb-03 22:32N 38°26' W 009°52'1110.7
2016-Feb-03 21:33N 38°16' W 009°49'1510.8
2016-Feb-03 20:12N 38°01' W 009°45'912.2
2016-Feb-03 19:28N 37°53' W 009°42'  

Dump ship's entire track history